Time;durP1;ratioP1;P1;durP2;ratioP2;P2;SDS_P1;SDS_P2;PMS_P1;PMS_P2;Temp;Humidity;BMP_temperature;BMP_pressure;BME280_temperature;BME280_humidity;BME280_pressure;Samples;Min_cycle;Max_cycle;Signal;HPM_P1;HPM_P2
2023/09/01 00:00:26;;;;;;;30.52;14.13;;;;;;;;;;8430218;28;20415;-90
2023/09/01 00:04:49;;;;;;;33.67;13.73;;;;;;;;;;8417103;28;20140;-90
2023/09/01 00:08:53;;;;;;;28.42;13.57;;;;;;;;;;8416661;28;20401;-89
2023/09/01 00:12:57;;;;;;;30.33;13.55;;;;;;;;;;8412043;28;20101;-87
2023/09/01 00:16:59;;;;;;;32.10;14.40;;;;;;;;;;8424110;28;20059;-89
2023/09/01 00:21:03;;;;;;;30.80;12.00;;;;;;;;;;8421383;28;20051;-89
2023/09/01 00:25:09;;;;;;;29.70;12.93;;;;;;;;;;8410178;28;20442;-90
2023/09/01 00:29:12;;;;;;;32.90;13.45;;;;;;;;;;8422852;28;20411;-90
2023/09/01 00:33:15;;;;;;;24.40;11.20;;;;;;;;;;8423068;28;20394;-90
2023/09/01 00:37:17;;;;;;;32.53;13.93;;;;;;;;;;8426141;28;20058;-88
2023/09/01 00:41:21;;;;;;;31.02;13.10;;;;;;;;;;8419966;28;20052;-90
2023/09/01 00:45:26;;;;;;;30.55;13.52;;;;;;;;;;8417613;28;20411;-88
2023/09/01 00:49:28;;;;;;;34.05;13.73;;;;;;;;;;8429078;28;20048;-89
2023/09/01 00:53:31;;;;;;;27.92;12.35;;;;;;;;;;8413189;28;20499;-88
2023/09/01 00:57:36;;;;;;;33.60;13.90;;;;;;;;;;8418326;28;20114;-90
2023/09/01 01:01:44;;;;;;;26.98;13.00;;;;;;;;;;8387112;28;20114;-89
2023/09/01 01:06:10;;;;;;;38.35;13.75;;;;;;;;;;8406225;28;20063;-88
2023/09/01 01:10:19;;;;;;;30.08;12.13;;;;;;;;;;8428332;28;20079;-90
2023/09/01 01:14:28;;;;;;;31.88;13.52;;;;;;;;;;8408089;28;20075;-87
2023/09/01 01:18:44;;;;;;;34.58;13.73;;;;;;;;;;8398431;28;20048;-90
2023/09/01 01:22:53;;;;;;;29.48;11.55;;;;;;;;;;8406267;28;20056;-89
2023/09/01 01:26:57;;;;;;;28.63;12.57;;;;;;;;;;8396769;28;20063;-90
2023/09/01 01:31:01;;;;;;;30.15;13.77;;;;;;;;;;8411267;28;20146;-91
2023/09/01 01:35:11;;;;;;;32.85;13.63;;;;;;;;;;8447637;28;20070;-89
2023/09/01 01:39:19;;;;;;;31.35;13.13;;;;;;;;;;8458574;28;20052;-88
2023/09/01 01:43:27;;;;;;;33.30;13.27;;;;;;;;;;8472785;28;20028;-87
2023/09/01 01:47:30;;;;;;;32.38;12.27;;;;;;;;;;9312948;22;20076;-89
2023/09/01 01:51:33;;;;;;;28.20;13.20;;;;;;;;;;8363243;28;20390;-89
2023/09/01 01:55:36;;;;;;;32.08;13.68;;;;;;;;;;8362340;28;20060;-89
2023/09/01 01:59:41;;;;;;;34.63;13.20;;;;;;;;;;8360873;28;20049;-89
2023/09/01 02:03:44;;;;;;;30.02;12.88;;;;;;;;;;8361575;28;20576;-88
2023/09/01 02:07:47;;;;;;;30.98;11.75;;;;;;;;;;8361171;28;20053;-89
2023/09/01 02:11:50;;;;;;;29.92;10.77;;;;;;;;;;8361182;28;20061;-89
2023/09/01 02:15:54;;;;;;;28.65;12.00;;;;;;;;;;8364566;28;20049;-87
2023/09/01 02:19:57;;;;;;;32.00;12.57;;;;;;;;;;8366815;28;20067;-89
2023/09/01 02:24:01;;;;;;;26.40;11.68;;;;;;;;;;8349826;28;20053;-88
2023/09/01 02:28:05;;;;;;;27.77;12.32;;;;;;;;;;8349672;28;20065;-89
2023/09/01 02:32:09;;;;;;;31.52;12.73;;;;;;;;;;8349267;28;20053;-89
2023/09/01 02:36:29;;;;;;;29.42;12.77;;;;;;;;;;8366253;28;20473;-89
2023/09/01 02:40:32;;;;;;;29.88;12.40;;;;;;;;;;8349147;28;20087;-89
2023/09/01 02:44:35;;;;;;;29.20;12.98;;;;;;;;;;8336347;28;20056;-90
2023/09/01 02:48:43;;;;;;;26.52;12.75;;;;;;;;;;8365645;28;20068;-88
2023/09/01 02:52:46;;;;;;;27.92;12.77;;;;;;;;;;8348430;28;20138;-89
2023/09/01 02:56:49;;;;;;;32.50;12.50;;;;;;;;;;8365526;28;20076;-89
2023/09/01 03:00:52;;;;;;;33.22;13.55;;;;;;;;;;8365857;28;20045;-88
2023/09/01 03:04:57;;;;;;;28.85;11.43;;;;;;;;;;8365481;28;20458;-87
2023/09/01 03:09:00;;;;;;;37.80;13.63;;;;;;;;;;8365294;28;20436;-88
2023/09/01 03:13:03;;;;;;;38.90;13.93;;;;;;;;;;8365308;28;20053;-88
2023/09/01 03:17:06;;;;;;;41.30;15.30;;;;;;;;;;8348071;28;20451;-89
2023/09/01 03:21:12;;;;;;;39.13;15.38;;;;;;;;;;8348102;28;20143;-89
2023/09/01 03:25:15;;;;;;;44.65;16.88;;;;;;;;;;8364693;28;20060;-89
2023/09/01 03:29:18;;;;;;;47.00;18.17;;;;;;;;;;8364263;28;20481;-89
2023/09/01 03:33:22;;;;;;;51.45;18.88;;;;;;;;;;8347781;28;20053;-88
2023/09/01 03:37:27;;;;;;;49.45;17.92;;;;;;;;;;8347231;28;20049;-88
2023/09/01 03:41:29;;;;;;;50.47;17.10;;;;;;;;;;8364409;28;20053;-88
2023/09/01 03:45:33;;;;;;;48.70;18.42;;;;;;;;;;8363901;28;20485;-89
2023/09/01 03:49:36;;;;;;;46.83;17.08;;;;;;;;;;8345861;28;20529;-88
2023/09/01 03:53:41;;;;;;;48.85;17.85;;;;;;;;;;8363790;28;20140;-88
2023/09/01 03:57:44;;;;;;;52.63;18.65;;;;;;;;;;8363693;28;20464;-89
2023/09/01 04:01:48;;;;;;;55.25;19.08;;;;;;;;;;8346480;28;20885;-89
2023/09/01 04:05:51;;;;;;;52.60;18.70;;;;;;;;;;8363635;28;20056;-88
2023/09/01 04:09:56;;;;;;;52.10;18.45;;;;;;;;;;8346284;28;20049;-88
2023/09/01 04:13:59;;;;;;;45.28;16.40;;;;;;;;;;8363490;28;20057;-88
2023/09/01 04:18:02;;;;;;;47.58;17.33;;;;;;;;;;8362925;28;20052;-88
2023/09/01 04:22:05;;;;;;;43.15;15.55;;;;;;;;;;8363140;28;20056;-89
2023/09/01 04:26:10;;;;;;;45.05;17.40;;;;;;;;;;8362911;28;20493;-89
2023/09/01 04:30:14;;;;;;;46.28;18.13;;;;;;;;;;8345862;28;20124;-88
2023/09/01 04:34:18;;;;;;;50.53;19.55;;;;;;;;;;8362639;28;20513;-88
2023/09/01 04:38:20;;;;;;;45.35;19.92;;;;;;;;;;8362493;28;20063;-89
2023/09/01 04:42:25;;;;;;;38.50;16.67;;;;;;;;;;8362336;28;20052;-89
2023/09/01 04:46:28;;;;;;;41.38;17.77;;;;;;;;;;8345180;28;20061;-88
2023/09/01 04:50:31;;;;;;;46.15;18.63;;;;;;;;;;8362505;28;20057;-88
2023/09/01 04:54:34;;;;;;;44.58;13.27;;;;;;;;;;8362079;28;20107;-88
2023/09/01 04:58:38;;;;;;;28.20;12.73;;;;;;;;;;8361640;28;20056;-89
2023/09/01 05:02:40;;;;;;;20.95;10.75;;;;;;;;;;8343175;28;20132;-89
2023/09/01 05:06:43;;;;;;;17.15;9.18;;;;;;;;;;8360349;28;20120;-89
2023/09/01 05:10:46;;;;;;;11.50;7.30;;;;;;;;;;8340595;28;20076;-88
2023/09/01 05:14:51;;;;;;;9.90;6.00;;;;;;;;;;8361931;28;20052;-88
2023/09/01 05:18:54;;;;;;;13.25;6.07;;;;;;;;;;8362210;28;20053;-89
2023/09/01 05:22:57;;;;;;;8.60;5.63;;;;;;;;;;8361737;28;20056;-89
2023/09/01 05:27:00;;;;;;;8.27;4.82;;;;;;;;;;8342696;28;20064;-87
2023/09/01 05:31:07;;;;;;;6.85;4.38;;;;;;;;;;8362590;28;20064;-88
2023/09/01 05:35:10;;;;;;;7.80;4.55;;;;;;;;;;8361502;28;20053;-89
2023/09/01 05:39:12;;;;;;;7.07;3.97;;;;;;;;;;8361574;28;20094;-89
2023/09/01 05:43:17;;;;;;;5.05;3.45;;;;;;;;;;8361116;28;20106;-88
2023/09/01 05:47:22;;;;;;;5.22;3.45;;;;;;;;;;8360936;28;20481;-89
2023/09/01 05:51:25;;;;;;;7.13;3.33;;;;;;;;;;8348925;28;20091;-90
2023/09/01 05:55:30;;;;;;;5.13;2.83;;;;;;;;;;8368028;28;20179;-89
2023/09/01 05:59:32;;;;;;;5.15;2.38;;;;;;;;;;8367042;28;20056;-90
2023/09/01 06:03:38;;;;;;;5.72;2.70;;;;;;;;;;8359759;28;20517;-91
2023/09/01 06:07:41;;;;;;;4.40;2.30;;;;;;;;;;8351519;28;20060;-92
2023/09/01 06:11:44;;;;;;;7.13;2.60;;;;;;;;;;8369166;28;20052;-90
2023/09/01 06:15:47;;;;;;;5.28;2.22;;;;;;;;;;8353182;28;20489;-90
2023/09/01 06:19:51;;;;;;;4.75;2.35;;;;;;;;;;8349845;28;20501;-93
2023/09/01 06:23:54;;;;;;;5.43;2.42;;;;;;;;;;8366997;28;20075;-92
2023/09/01 06:27:57;;;;;;;4.78;2.55;;;;;;;;;;8366786;28;20072;-93
2023/09/01 06:32:00;;;;;;;3.08;2.10;;;;;;;;;;8349937;28;20088;-92
2023/09/01 06:36:09;;;;;;;4.93;1.95;;;;;;;;;;8366711;28;20060;-92
2023/09/01 06:40:13;;;;;;;4.07;1.90;;;;;;;;;;8349163;28;20096;-89
2023/09/01 06:44:16;;;;;;;4.97;2.30;;;;;;;;;;8349327;28;20057;-90
2023/09/01 06:48:19;;;;;;;6.35;2.00;;;;;;;;;;8332015;28;20057;-91
2023/09/01 06:52:24;;;;;;;3.33;1.90;;;;;;;;;;8332809;28;20056;-89
2023/09/01 06:56:27;;;;;;;5.43;2.30;;;;;;;;;;8332922;28;20115;-90
2023/09/01 07:00:32;;;;;;;5.47;2.13;;;;;;;;;;8332023;28;20057;-90
2023/09/01 07:04:35;;;;;;;5.50;2.03;;;;;;;;;;8332150;28;20053;-91
2023/09/01 07:08:43;;;;;;;3.80;2.17;;;;;;;;;;8332235;28;20046;-90
2023/09/01 07:12:47;;;;;;;3.95;1.83;;;;;;;;;;8332739;28;20061;-90
2023/09/01 07:16:50;;;;;;;5.72;2.10;;;;;;;;;;8332105;28;20084;-88
2023/09/01 07:20:58;;;;;;;3.35;1.90;;;;;;;;;;8331741;28;20116;-90
2023/09/01 07:25:03;;;;;;;3.88;2.05;;;;;;;;;;8332817;28;20056;-91
2023/09/01 07:29:06;;;;;;;2.80;1.80;;;;;;;;;;8332736;28;20060;-91
2023/09/01 07:33:09;;;;;;;4.90;2.10;;;;;;;;;;8331678;28;20060;-90
2023/09/01 07:37:12;;;;;;;2.92;1.80;;;;;;;;;;8332325;28;20125;-90
2023/09/01 07:41:16;;;;;;;2.95;1.88;;;;;;;;;;8332100;28;20394;-90
2023/09/01 07:45:19;;;;;;;3.95;1.70;;;;;;;;;;8332209;28;20080;-91
2023/09/01 07:49:26;;;;;;;3.42;1.70;;;;;;;;;;8362059;28;20131;-90
2023/09/01 07:53:29;;;;;;;2.17;1.70;;;;;;;;;;8364794;28;20060;-89
2023/09/01 07:57:34;;;;;;;3.90;1.77;;;;;;;;;;8355546;28;20064;-90
2023/09/01 08:01:37;;;;;;;2.78;1.52;;;;;;;;;;8370633;28;20196;-91
2023/09/01 08:05:40;;;;;;;3.63;1.70;;;;;;;;;;8347095;28;20448;-91
2023/09/01 08:09:43;;;;;;;3.95;1.60;;;;;;;;;;8387482;28;20107;-91
2023/09/01 08:13:48;;;;;;;2.28;1.48;;;;;;;;;;8371111;28;20064;-91
2023/09/01 08:17:51;;;;;;;2.70;1.80;;;;;;;;;;8402077;28;20040;-88
2023/09/01 08:21:56;;;;;;;3.65;1.90;;;;;;;;;;8394942;28;20028;-87
2023/09/01 08:25:59;;;;;;;4.63;1.80;;;;;;;;;;8361990;28;20049;-90
2023/09/01 08:30:06;;;;;;;3.20;1.65;;;;;;;;;;8364868;28;20053;-92
2023/09/01 08:34:10;;;;;;;2.33;1.67;;;;;;;;;;8363363;28;20435;-89
2023/09/01 08:38:13;;;;;;;3.33;1.75;;;;;;;;;;8362647;28;20069;-91
2023/09/01 08:42:19;;;;;;;4.03;1.70;;;;;;;;;;8342641;28;20064;-88
2023/09/01 08:46:24;;;;;;;6.55;2.20;;;;;;;;;;8354070;28;20065;-90
2023/09/01 08:50:27;;;;;;;2.35;1.40;;;;;;;;;;8356831;28;20045;-88
2023/09/01 08:54:33;;;;;;;3.65;1.90;;;;;;;;;;8360183;28;20409;-89
2023/09/01 08:58:37;;;;;;;3.60;1.58;;;;;;;;;;8356674;28;20137;-91
2023/09/01 09:02:45;;;;;;;2.92;1.90;;;;;;;;;;8352193;28;20048;-93
2023/09/01 09:06:48;;;;;;;3.75;1.90;;;;;;;;;;8347972;28;20053;-92
2023/09/01 09:10:51;;;;;;;4.50;1.90;;;;;;;;;;8347269;28;20056;-91
2023/09/01 09:14:54;;;;;;;2.90;1.63;;;;;;;;;;8350707;28;20084;-92
2023/09/01 09:19:07;;;;;;;4.22;1.88;;;;;;;;;;8335735;28;20060;-92
2023/09/01 09:23:13;;;;;;;3.33;2.08;;;;;;;;;;8351232;28;20116;-95
2023/09/01 09:27:16;;;;;;;3.00;1.77;;;;;;;;;;8359575;28;20060;-89
2023/09/01 09:31:29;;;;;;;3.70;2.00;;;;;;;;;;8358723;28;20125;-90
2023/09/01 09:35:35;;;;;;;4.45;2.20;;;;;;;;;;8349587;28;20091;-93
2023/09/01 09:39:41;;;;;;;5.10;2.05;;;;;;;;;;8349387;28;20512;-92
2023/09/01 09:43:46;;;;;;;3.28;1.75;;;;;;;;;;8363975;28;20141;-90
2023/09/01 09:47:50;;;;;;;5.05;2.33;;;;;;;;;;8362131;28;20052;-92
2023/09/01 09:51:55;;;;;;;6.30;2.70;;;;;;;;;;8363286;28;20049;-89
2023/09/01 09:56:01;;;;;;;4.63;2.38;;;;;;;;;;8354731;28;20053;-88
2023/09/01 10:00:10;;;;;;;5.15;2.10;;;;;;;;;;8362523;28;20508;-95
2023/09/01 10:04:15;;;;;;;4.63;2.53;;;;;;;;;;8375495;28;20063;-92
2023/09/01 10:08:28;;;;;;;3.53;2.20;;;;;;;;;;8363383;28;20059;-94
2023/09/01 10:12:43;;;;;;;4.15;2.60;;;;;;;;;;8370725;28;20225;-93
2023/09/01 10:16:48;;;;;;;4.57;2.40;;;;;;;;;;8369714;28;20060;-96
2023/09/01 10:20:51;;;;;;;5.18;2.70;;;;;;;;;;8378460;28;20059;-93
2023/09/01 10:25:11;;;;;;;4.95;2.20;;;;;;;;;;8373426;28;20064;-90
2023/09/01 10:29:35;;;;;;;5.75;2.20;;;;;;;;;;8375692;28;20084;-96
2023/09/01 10:33:42;;;;;;;6.00;2.20;;;;;;;;;;8377601;28;20061;-92
2023/09/01 10:38:13;;;;;;;8.60;2.15;;;;;;;;;;8361644;28;20068;-88
2023/09/01 10:42:18;;;;;;;5.00;2.00;;;;;;;;;;8375078;28;20533;-93
2023/09/01 10:46:26;;;;;;;3.53;1.98;;;;;;;;;;8379530;28;20061;-93
2023/09/01 10:50:35;;;;;;;4.78;2.10;;;;;;;;;;8372855;28;20500;-94
2023/09/01 10:54:44;;;;;;;5.20;2.33;;;;;;;;;;8372961;28;20152;-90
2023/09/01 10:58:50;;;;;;;5.57;2.45;;;;;;;;;;8373471;28;20433;-92
2023/09/01 11:03:11;;;;;;;4.55;2.40;;;;;;;;;;8422402;22;20039;-92
2023/09/01 11:07:14;;;;;;;4.82;2.40;;;;;;;;;;8402925;28;20091;-95
2023/09/01 11:11:20;;;;;;;5.85;2.40;;;;;;;;;;8408354;28;20062;-91
2023/09/01 11:15:25;;;;;;;5.13;2.03;;;;;;;;;;8386575;28;20056;-91
2023/09/01 11:19:28;;;;;;;3.55;2.28;;;;;;;;;;8410063;28;20113;-93
2023/09/01 11:23:33;;;;;;;5.10;2.10;;;;;;;;;;8407271;28;20048;-91
2023/09/01 11:27:39;;;;;;;4.25;2.40;;;;;;;;;;8407500;28;20064;-93
2023/09/01 11:37:06;;;;;;;4.22;2.10;;;;;;;;;;8306979;28;20049;-94
2023/09/01 11:41:19;;;;;;;7.22;2.30;;;;;;;;;;8224253;28;20059;-95
2023/09/01 11:45:33;;;;;;;5.05;2.25;;;;;;;;;;8201773;28;20089;-93
2023/09/01 11:49:44;;;;;;;5.68;2.40;;;;;;;;;;8227696;28;20059;-93
2023/09/01 11:53:58;;;;;;;5.00;2.13;;;;;;;;;;8345818;28;20061;-94
2023/09/01 11:58:02;;;;;;;7.22;2.50;;;;;;;;;;8323367;28;20080;-91
2023/09/01 12:02:05;;;;;;;3.28;2.20;;;;;;;;;;8343305;28;20212;-94
2023/09/01 12:06:18;;;;;;;5.70;2.00;;;;;;;;;;8324159;28;20140;-93
2023/09/01 12:10:22;;;;;;;4.57;2.45;;;;;;;;;;8320093;28;20692;-91
2023/09/01 12:14:27;;;;;;;3.67;2.28;;;;;;;;;;8317592;28;20506;-90
2023/09/01 12:18:35;;;;;;;7.05;2.28;;;;;;;;;;8320035;28;20053;-93
2023/09/01 12:22:40;;;;;;;6.18;2.25;;;;;;;;;;8322609;28;20096;-94
2023/09/01 12:26:43;;;;;;;6.03;2.58;;;;;;;;;;8377920;28;20078;-90
2023/09/01 12:30:46;;;;;;;3.72;2.35;;;;;;;;;;8391335;28;20060;-90
2023/09/01 12:34:49;;;;;;;5.35;2.25;;;;;;;;;;8382445;28;20543;-91
2023/09/01 12:38:54;;;;;;;5.75;2.40;;;;;;;;;;8395710;28;20056;-93
2023/09/01 12:42:57;;;;;;;3.40;2.10;;;;;;;;;;8386583;28;20052;-92
2023/09/01 12:47:00;;;;;;;8.30;2.60;;;;;;;;;;8400661;28;20051;-92
2023/09/01 12:51:03;;;;;;;4.47;2.40;;;;;;;;;;8413700;28;20420;-95
2023/09/01 12:55:09;;;;;;;4.78;2.10;;;;;;;;;;8426076;28;20408;-94
2023/09/01 12:59:11;;;;;;;4.35;2.05;;;;;;;;;;8390846;28;20040;-94
2023/09/01 13:03:15;;;;;;;5.97;2.10;;;;;;;;;;8406300;28;20067;-95
2023/09/01 13:07:20;;;;;;;5.00;2.33;;;;;;;;;;8389659;28;20052;-95
2023/09/01 13:11:29;;;;;;;3.97;1.90;;;;;;;;;;8416229;28;20170;-94
2023/09/01 13:15:33;;;;;;;4.05;2.30;;;;;;;;;;8408161;28;20098;-89
2023/09/01 13:19:36;;;;;;;2.85;1.83;;;;;;;;;;8406159;28;20051;-90
2023/09/01 13:23:47;;;;;;;4.97;2.15;;;;;;;;;;8364364;28;20086;-93
2023/09/01 13:28:20;;;;;;;5.35;2.20;;;;;;;;;;8385864;28;20131;-94
2023/09/01 13:32:24;;;;;;;5.68;2.42;;;;;;;;;;8410525;28;20061;-95
2023/09/01 13:36:29;;;;;;;3.67;2.17;;;;;;;;;;8398674;28;20075;-94
2023/09/01 13:40:34;;;;;;;5.18;2.38;;;;;;;;;;8398858;28;20056;-94
2023/09/01 13:44:41;;;;;;;5.43;2.60;;;;;;;;;;8417492;28;20133;-93
2023/09/01 13:48:47;;;;;;;7.65;3.58;;;;;;;;;;8321283;28;20111;-93
2023/09/01 13:52:54;;;;;;;13.00;6.03;;;;;;;;;;8414718;28;20127;-94
2023/09/01 13:56:59;;;;;;;4.15;2.42;;;;;;;;;;8388720;28;20055;-95
2023/09/01 14:01:05;;;;;;;4.72;2.20;;;;;;;;;;8403167;28;20408;-91
2023/09/01 14:05:15;;;;;;;5.65;2.30;;;;;;;;;;8396667;28;20080;-89
2023/09/01 14:09:18;;;;;;;6.03;2.22;;;;;;;;;;8398532;28;20144;-94
2023/09/01 14:13:23;;;;;;;4.35;2.03;;;;;;;;;;8388895;28;20068;-90
2023/09/01 14:17:32;;;;;;;4.60;2.35;;;;;;;;;;8412437;28;20053;-95
2023/09/01 14:21:41;;;;;;;4.90;2.10;;;;;;;;;;8409060;28;20045;-92
2023/09/01 14:25:50;;;;;;;11.77;2.40;;;;;;;;;;8407183;28;20469;-90
2023/09/01 14:29:54;;;;;;;3.58;1.90;;;;;;;;;;8408382;28;20063;-95
2023/09/01 14:34:04;;;;;;;4.20;2.05;;;;;;;;;;8386032;28;20053;-94
2023/09/01 14:38:08;;;;;;;6.78;2.53;;;;;;;;;;8406288;28;20056;-90
2023/09/01 14:42:14;;;;;;;5.00;2.00;;;;;;;;;;8429549;28;20135;-91
2023/09/01 14:46:19;;;;;;;5.45;2.30;;;;;;;;;;8429090;28;20072;-89
2023/09/01 14:50:25;;;;;;;4.15;2.15;;;;;;;;;;8442050;28;20096;-96
2023/09/01 14:54:31;;;;;;;4.90;2.25;;;;;;;;;;8427090;28;20079;-90
2023/09/01 14:58:35;;;;;;;4.03;2.10;;;;;;;;;;8421848;28;20068;-89
2023/09/01 15:02:39;;;;;;;4.20;2.15;;;;;;;;;;8432233;28;20031;-88
2023/09/01 15:06:48;;;;;;;6.00;2.42;;;;;;;;;;8447885;28;20052;-88
2023/09/01 15:10:53;;;;;;;5.60;2.20;;;;;;;;;;8427819;28;20052;-93
2023/09/01 15:15:06;;;;;;;3.47;2.22;;;;;;;;;;8408098;28;20052;-95
2023/09/01 15:19:10;;;;;;;6.55;2.63;;;;;;;;;;8398597;28;20048;-92
2023/09/01 15:23:17;;;;;;;5.07;2.40;;;;;;;;;;8411222;28;20056;-90
2023/09/01 15:27:24;;;;;;;4.90;2.40;;;;;;;;;;8424662;28;20060;-89
2023/09/01 15:31:30;;;;;;;6.82;2.65;;;;;;;;;;8434140;28;20418;-93
2023/09/01 15:35:41;;;;;;;4.00;2.10;;;;;;;;;;8388786;28;20049;-88
2023/09/01 15:39:52;;;;;;;5.93;2.40;;;;;;;;;;8329602;28;20045;-90
2023/09/01 15:43:56;;;;;;;4.15;2.28;;;;;;;;;;8407536;28;20052;-92
2023/09/01 15:48:00;;;;;;;5.55;2.30;;;;;;;;;;8411183;28;20132;-95
2023/09/01 15:52:07;;;;;;;4.35;2.28;;;;;;;;;;8409641;28;20044;-92
2023/09/01 15:56:15;;;;;;;5.57;2.53;;;;;;;;;;8392395;28;20080;-93
2023/09/01 16:00:21;;;;;;;8.07;2.80;;;;;;;;;;8387931;28;20045;-95
2023/09/01 16:04:31;;;;;;;5.32;2.53;;;;;;;;;;8391262;28;20053;-94
2023/09/01 16:08:36;;;;;;;6.18;2.78;;;;;;;;;;8403704;28;20053;-94
2023/09/01 16:12:45;;;;;;;5.60;2.30;;;;;;;;;;8390602;28;20056;-93
2023/09/01 16:16:55;;;;;;;5.75;2.55;;;;;;;;;;8393960;28;20067;-94
2023/09/01 16:21:19;;;;;;;7.10;2.92;;;;;;;;;;8399937;28;20385;-90
2023/09/01 16:25:39;;;;;;;7.10;2.90;;;;;;;;;;8386520;28;20119;-93
2023/09/01 16:30:15;;;;;;;7.68;2.70;;;;;;;;;;8387135;28;20094;-90
2023/09/01 16:34:21;;;;;;;5.70;2.60;;;;;;;;;;8387045;28;20531;-91
2023/09/01 16:38:30;;;;;;;6.75;2.83;;;;;;;;;;8403349;28;20072;-92
2023/09/01 16:42:34;;;;;;;8.88;3.58;;;;;;;;;;8385659;28;20144;-93
2023/09/01 16:46:43;;;;;;;11.98;5.75;;;;;;;;;;8378276;28;20057;-94
2023/09/01 16:55:39;;;;;;;9.00;4.40;;;;;;;;;;8393032;28;20109;-93
2023/09/01 16:59:44;;;;;;;7.72;4.10;;;;;;;;;;8404622;28;20556;-93
2023/09/01 17:09:13;;;;;;;8.30;3.80;;;;;;;;;;8431980;22;20052;-88
2023/09/01 17:13:58;;;;;;;10.20;3.42;;;;;;;;;;8386395;28;20060;-93
2023/09/01 17:27:12;;;;;;;9.50;3.85;;;;;;;;;;8398060;22;20061;-92
2023/09/01 17:31:17;;;;;;;9.90;3.90;;;;;;;;;;8366187;28;20076;-92
2023/09/01 17:35:22;;;;;;;4.97;3.70;;;;;;;;;;8345423;28;20068;-87
2023/09/01 17:39:27;;;;;;;9.18;4.38;;;;;;;;;;8333178;28;20111;-94
2023/09/01 17:43:37;;;;;;;10.07;4.20;;;;;;;;;;8527295;22;20225;-94
2023/09/01 17:52:24;;;;;;;8.82;4.55;;;;;;;;;;8324553;28;20109;-95
2023/09/01 17:56:38;;;;;;;12.07;5.45;;;;;;;;;;8332090;28;20088;-94
2023/09/01 18:00:42;;;;;;;14.88;8.30;;;;;;;;;;8311591;28;20055;-93
2023/09/01 18:04:46;;;;;;;10.80;5.03;;;;;;;;;;8339786;28;20061;-91
2023/09/01 18:08:49;;;;;;;8.73;5.22;;;;;;;;;;8341604;28;20077;-93
2023/09/01 18:13:00;;;;;;;19.10;9.13;;;;;;;;;;8341439;28;20061;-93
2023/09/01 18:17:07;;;;;;;29.98;14.27;;;;;;;;;;8337340;28;20084;-91
2023/09/01 18:21:14;;;;;;;211.48;54.15;;;;;;;;;;8383424;22;20061;-94
2023/09/01 18:25:22;;;;;;;181.68;51.03;;;;;;;;;;8334653;28;20053;-92
2023/09/01 18:29:28;;;;;;;62.45;21.88;;;;;;;;;;8327229;28;20059;-90
2023/09/01 18:33:33;;;;;;;45.88;21.02;;;;;;;;;;8335253;28;20056;-90
2023/09/01 18:49:10;;;;;;;103.75;33.65;;;;;;;;;;8359907;28;20075;-90
2023/09/01 18:53:14;;;;;;;35.33;15.15;;;;;;;;;;8364168;28;20084;-90
2023/09/01 18:57:23;;;;;;;28.15;16.00;;;;;;;;;;8345255;28;20065;-90
2023/09/01 19:01:31;;;;;;;31.50;16.63;;;;;;;;;;8477193;22;20076;-90
2023/09/01 19:05:43;;;;;;;92.50;41.42;;;;;;;;;;8400238;28;20056;-91
2023/09/01 19:09:48;;;;;;;239.93;102.13;;;;;;;;;;8400084;28;20525;-90
2023/09/01 19:13:54;;;;;;;17.38;8.93;;;;;;;;;;8520394;22;20052;-90
2023/09/01 19:18:01;;;;;;;10.82;6.57;;;;;;;;;;8433517;28;20080;-90
2023/09/01 19:22:15;;;;;;;16.80;7.65;;;;;;;;;;8435087;28;20500;-91
2023/09/01 19:26:23;;;;;;;13.35;5.80;;;;;;;;;;8432068;28;20061;-91
2023/09/01 19:30:32;;;;;;;14.38;6.50;;;;;;;;;;8415254;28;20492;-90
2023/09/01 19:34:38;;;;;;;11.70;6.28;;;;;;;;;;8435329;28;20112;-90
2023/09/01 19:38:50;;;;;;;22.23;12.55;;;;;;;;;;8406887;28;20048;-90
2023/09/01 19:43:00;;;;;;;20.30;10.90;;;;;;;;;;8412911;28;20048;-91
2023/09/01 19:47:08;;;;;;;11.77;6.37;;;;;;;;;;8401503;28;20117;-94
2023/09/01 20:02:01;;;;;;;15.43;7.63;;;;;;;;;;8429498;28;20054;-96
2023/09/01 20:37:43;;;;;;;11.60;6.45;;;;;;;;;;8193588;29;20067;-88
2023/09/01 20:52:24;;;;;;;13.90;6.47;;;;;;;;;;8126757;29;20083;-95
2023/09/01 21:11:14;;;;;;;13.85;6.68;;;;;;;;;;8241678;28;20054;-96
2023/09/01 21:15:22;;;;;;;9.38;6.22;;;;;;;;;;8298910;28;20069;-95
2023/09/01 21:19:53;;;;;;;13.00;6.38;;;;;;;;;;8291277;28;20058;-93
2023/09/01 21:29:40;;;;;;;13.73;7.95;;;;;;;;;;8307051;28;20077;-89
2023/09/01 22:10:37;;;;;;;12.07;7.35;;;;;;;;;;8497288;28;20031;-88
2023/09/01 22:20:47;;;;;;;11.30;7.20;;;;;;;;;;8417083;28;20648;-88
2023/09/01 22:25:28;;;;;;;14.05;7.65;;;;;;;;;;8419965;28;20056;-90
2023/09/01 22:49:19;;;;;;;9.05;7.10;;;;;;;;;;8230047;28;20064;-86
2023/09/01 23:28:23;;;;;;;10.32;6.47;;;;;;;;;;8440765;28;20067;-93
2023/09/01 23:33:35;;;;;;;10.63;6.45;;;;;;;;;;8385496;28;20064;-89
2023/09/01 23:38:22;;;;;;;12.07;6.95;;;;;;;;;;8400118;28;20045;-90
2023/09/01 23:48:25;;;;;;;10.85;5.90;;;;;;;;;;8169158;29;20553;-95
2023/09/01 23:53:34;;;;;;;9.98;6.20;;;;;;;;;;8130868;29;20059;-90
2023/09/01 23:58:36;;;;;;;10.07;6.43;;;;;;;;;;8091990;29;20032;-93
